San Francisco (SFO/KSFO)

Information

Location
San Francisco, CA
Local Time
17:15 / 5:15 pm
GMT Time
00:15 / 12:15 am
Gates
Unassigned
No FAA reported delays
METAR KSFO 222356Z 27020KT 10SM FEW029 SCT038 13/06 A3008 RMK AO2 PK WND 27027/2332 SLP185 T01330056 10150 20133 58002
TAF KSFO 222338Z 2300/2406 27020G28KT P6SM FEW030 FEW080 FEW100 FM230400 27016G24KT P6SM FEW030 FM230900 27010KT P6SM FEW020 FM231200 28006KT P6SM SCT020 FM231900 27008KT P6SM FEW020 FM232200 25011KT P6SM SCT200 FM240400 16006KT P6SM BKN150
  • No charts available